Weather at Caransebeş Airport

Public forecast

Using degrees Celsius for public forecast. Weather courtesy of forecast.io.

Closest aviation weather report (METAR) to Caransebeş Airport

Closest report is Vršac International Airport, 43.1 nm (79.8 km) WSW. Retrieved 2020/10/19 23:30 UTC (25 minutes ago):

LYVR 192330Z AUTO VRB01KT 8000 2300 NSC 00/M00 Q1027

Closest aviation forecast (TAF) to Caransebeş Airport

Closest forecast is Vršac International Airport, 43.1 nm (79.8 km) WSW. Retrieved 2020/10/19 18:00 UTC (6 hours ago):

TAF LYVR 191700Z 1918/2018 07004KT CAVOK TX16/2013Z TNM01/2004Z BECMG 2000/2001 3000 BR TEMPO 2002/2005 0400 FG BECMG 2007/2008 7000 NSW